sensor_id;sensor_type;location;lat;lon;timestamp;pressure;altitude;pressure_sealevel;temperature;humidity
4981;BME280;2507;50.392;7.482;2022-11-20T00:00:47;100447.88;;;5.62;67.10
4981;BME280;2507;50.392;7.482;2022-11-20T00:03:12;100451.34;;;5.63;66.63
4981;BME280;2507;50.392;7.482;2022-11-20T00:05:37;100445.28;;;5.30;68.92
4981;BME280;2507;50.392;7.482;2022-11-20T00:08:03;100436.88;;;5.42;68.65
4981;BME280;2507;50.392;7.482;2022-11-20T00:10:29;100443.94;;;5.55;68.55
4981;BME280;2507;50.392;7.482;2022-11-20T00:12:54;100429.16;;;5.56;68.46
4981;BME280;2507;50.392;7.482;2022-11-20T00:15:19;100421.28;;;5.73;68.22
4981;BME280;2507;50.392;7.482;2022-11-20T00:17:44;100422.34;;;5.86;67.33
4981;BME280;2507;50.392;7.482;2022-11-20T00:20:10;100429.63;;;5.95;67.38
4981;BME280;2507;50.392;7.482;2022-11-20T00:22:36;100442.84;;;5.92;66.34
4981;BME280;2507;50.392;7.482;2022-11-20T00:25:01;100442.09;;;5.57;67.35
4981;BME280;2507;50.392;7.482;2022-11-20T00:27:26;100438.06;;;5.52;68.89
4981;BME280;2507;50.392;7.482;2022-11-20T00:29:52;100433.84;;;5.49;69.01
4981;BME280;2507;50.392;7.482;2022-11-20T00:32:17;100434.88;;;5.62;69.33
4981;BME280;2507;50.392;7.482;2022-11-20T00:34:42;100428.28;;;5.72;68.55
4981;BME280;2507;50.392;7.482;2022-11-20T00:37:07;100430.19;;;5.69;68.48
4981;BME280;2507;50.392;7.482;2022-11-20T00:39:33;100443.94;;;5.55;69.30
4981;BME280;2507;50.392;7.482;2022-11-20T00:41:58;100431.44;;;5.62;69.52
4981;BME280;2507;50.392;7.482;2022-11-20T00:44:23;100437.38;;;5.64;69.45
4981;BME280;2507;50.392;7.482;2022-11-20T00:46:48;100421.75;;;5.48;70.01
4981;BME280;2507;50.392;7.482;2022-11-20T00:49:14;100420.09;;;5.63;69.89
4981;BME280;2507;50.392;7.482;2022-11-20T00:51:39;100426.88;;;5.50;69.73
4981;BME280;2507;50.392;7.482;2022-11-20T00:54:04;100429.72;;;5.12;71.19
4981;BME280;2507;50.392;7.482;2022-11-20T00:56:30;100431.63;;;4.75;73.28
4981;BME280;2507;50.392;7.482;2022-11-20T00:58:55;100436.63;;;4.79;73.63
4981;BME280;2507;50.392;7.482;2022-11-20T01:01:25;100431.34;;;4.64;74.71
4981;BME280;2507;50.392;7.482;2022-11-20T01:03:52;100429.44;;;4.50;74.91
4981;BME280;2507;50.392;7.482;2022-11-20T01:06:20;100425.22;;;4.48;75.96
4981;BME280;2507;50.392;7.482;2022-11-20T01:08:46;100420.00;;;4.48;76.00
4981;BME280;2507;50.392;7.482;2022-11-20T01:11:22;100428.50;;;4.34;77.32
4981;BME280;2507;50.392;7.482;2022-11-20T01:13:50;100425.91;;;4.34;78.08
4981;BME280;2507;50.392;7.482;2022-11-20T01:18:45;100425.06;;;5.02;74.68
4981;BME280;2507;50.392;7.482;2022-11-20T01:21:13;100418.91;;;5.20;72.96
4981;BME280;2507;50.392;7.482;2022-11-20T01:23:40;100426.94;;;5.33;72.54
4981;BME280;2507;50.392;7.482;2022-11-20T01:26:09;100425.97;;;5.51;71.14
4981;BME280;2507;50.392;7.482;2022-11-20T01:28:35;100424.28;;;5.50;70.59
4981;BME280;2507;50.392;7.482;2022-11-20T01:31:00;100430.25;;;5.19;71.99
4981;BME280;2507;50.392;7.482;2022-11-20T01:33:26;100435.91;;;4.93;73.56
4981;BME280;2507;50.392;7.482;2022-11-20T01:35:53;100428.97;;;5.10;74.18
4981;BME280;2507;50.392;7.482;2022-11-20T01:38:19;100431.72;;;4.90;74.05
4981;BME280;2507;50.392;7.482;2022-11-20T01:40:53;100426.53;;;4.73;74.42
4981;BME280;2507;50.392;7.482;2022-11-20T01:43:20;100422.84;;;4.60;75.59
4981;BME280;2507;50.392;7.482;2022-11-20T01:46:04;100420.88;;;4.65;76.04
4981;BME280;2507;50.392;7.482;2022-11-20T01:48:40;100423.38;;;5.01;74.39
4981;BME280;2507;50.392;7.482;2022-11-20T01:51:15;100414.13;;;5.12;73.99
4981;BME280;2507;50.392;7.482;2022-11-20T01:53:42;100421.72;;;5.00;74.20
4981;BME280;2507;50.392;7.482;2022-11-20T01:56:10;100418.09;;;5.19;73.82
4981;BME280;2507;50.392;7.482;2022-11-20T01:58:40;100408.66;;;5.34;73.74
4981;BME280;2507;50.392;7.482;2022-11-20T02:01:08;100422.94;;;5.58;72.48
4981;BME280;2507;50.392;7.482;2022-11-20T02:03:33;100411.00;;;5.39;72.46
4981;BME280;2507;50.392;7.482;2022-11-20T02:08:43;100416.47;;;5.17;72.96
4981;BME280;2507;50.392;7.482;2022-11-20T02:11:08;100417.22;;;5.36;73.27
4981;BME280;2507;50.392;7.482;2022-11-20T02:13:34;100423.69;;;5.45;73.20
4981;BME280;2507;50.392;7.482;2022-11-20T02:16:14;100424.06;;;5.54;72.49
4981;BME280;2507;50.392;7.482;2022-11-20T02:18:40;100410.28;;;5.52;73.03
4981;BME280;2507;50.392;7.482;2022-11-20T02:21:15;100399.03;;;5.52;72.99
4981;BME280;2507;50.392;7.482;2022-11-20T02:26:35;100389.53;;;5.51;72.56
4981;BME280;2507;50.392;7.482;2022-11-20T02:29:03;100394.56;;;5.54;72.92
4981;BME280;2507;50.392;7.482;2022-11-20T02:31:29;100404.66;;;5.60;73.12
4981;BME280;2507;50.392;7.482;2022-11-20T02:33:56;100398.34;;;5.64;72.28
4981;BME280;2507;50.392;7.482;2022-11-20T02:36:22;100413.97;;;5.64;72.82
4981;BME280;2507;50.392;7.482;2022-11-20T02:38:49;100393.25;;;5.78;71.59
4981;BME280;2507;50.392;7.482;2022-11-20T02:41:15;100399.91;;;5.99;70.93
4981;BME280;2507;50.392;7.482;2022-11-20T02:43:40;100405.78;;;6.02;69.33
4981;BME280;2507;50.392;7.482;2022-11-20T02:46:07;100410.38;;;5.82;70.23
4981;BME280;2507;50.392;7.482;2022-11-20T02:48:32;100406.09;;;5.81;71.25
4981;BME280;2507;50.392;7.482;2022-11-20T02:50:57;100400.44;;;5.73;70.87
4981;BME280;2507;50.392;7.482;2022-11-20T02:53:23;100402.22;;;5.57;71.67
4981;BME280;2507;50.392;7.482;2022-11-20T02:55:48;100400.28;;;5.45;72.38
4981;BME280;2507;50.392;7.482;2022-11-20T02:58:13;100401.63;;;5.52;73.08
4981;BME280;2507;50.392;7.482;2022-11-20T03:00:38;100392.78;;;5.39;73.33
4981;BME280;2507;50.392;7.482;2022-11-20T03:03:04;100391.72;;;5.58;73.59
4981;BME280;2507;50.392;7.482;2022-11-20T03:05:29;100383.41;;;5.36;73.67
4981;BME280;2507;50.392;7.482;2022-11-20T03:07:54;100382.50;;;5.68;73.47
4981;BME280;2507;50.392;7.482;2022-11-20T03:10:19;100379.84;;;5.85;72.02
4981;BME280;2507;50.392;7.482;2022-11-20T03:12:45;100369.44;;;5.85;72.10
4981;BME280;2507;50.392;7.482;2022-11-20T03:15:10;100377.31;;;5.84;72.38
4981;BME280;2507;50.392;7.482;2022-11-20T03:17:36;100382.84;;;5.78;72.16
4981;BME280;2507;50.392;7.482;2022-11-20T03:20:01;100386.13;;;5.81;71.85
4981;BME280;2507;50.392;7.482;2022-11-20T03:22:29;100384.75;;;5.59;72.49
4981;BME280;2507;50.392;7.482;2022-11-20T03:24:55;100382.31;;;5.56;72.61
4981;BME280;2507;50.392;7.482;2022-11-20T03:27:20;100388.56;;;5.69;72.44
4981;BME280;2507;50.392;7.482;2022-11-20T03:29:45;100373.34;;;5.77;72.35
4981;BME280;2507;50.392;7.482;2022-11-20T03:32:10;100365.31;;;5.97;72.04
4981;BME280;2507;50.392;7.482;2022-11-20T03:34:36;100367.81;;;5.98;70.85
4981;BME280;2507;50.392;7.482;2022-11-20T03:37:01;100364.06;;;5.88;71.75
4981;BME280;2507;50.392;7.482;2022-11-20T03:39:26;100363.13;;;6.05;71.10
4981;BME280;2507;50.392;7.482;2022-11-20T03:41:52;100361.84;;;6.12;70.57
4981;BME280;2507;50.392;7.482;2022-11-20T03:44:17;100356.81;;;6.09;70.55
4981;BME280;2507;50.392;7.482;2022-11-20T03:46:42;100363.72;;;5.94;71.16
4981;BME280;2507;50.392;7.482;2022-11-20T03:49:07;100358.91;;;6.18;71.05
4981;BME280;2507;50.392;7.482;2022-11-20T03:51:34;100361.69;;;5.68;71.41
4981;BME280;2507;50.392;7.482;2022-11-20T03:54:03;100359.44;;;5.30;73.61
4981;BME280;2507;50.392;7.482;2022-11-20T03:56:32;100369.19;;;5.26;74.87
4981;BME280;2507;50.392;7.482;2022-11-20T03:58:57;100364.94;;;5.41;74.12
4981;BME280;2507;50.392;7.482;2022-11-20T04:01:25;100373.75;;;5.54;74.13
4981;BME280;2507;50.392;7.482;2022-11-20T04:03:53;100354.44;;;5.27;74.30
4981;BME280;2507;50.392;7.482;2022-11-20T04:06:37;100366.56;;;4.93;76.27
4981;BME280;2507;50.392;7.482;2022-11-20T04:09:03;100380.22;;;4.81;76.71
4981;BME280;2507;50.392;7.482;2022-11-20T04:11:30;100364.44;;;5.01;77.39
4981;BME280;2507;50.392;7.482;2022-11-20T04:14:01;100358.91;;;5.56;75.37
4981;BME280;2507;50.392;7.482;2022-11-20T04:16:33;100360.50;;;5.89;73.26
4981;BME280;2507;50.392;7.482;2022-11-20T04:19:01;100357.34;;;6.00;72.15
4981;BME280;2507;50.392;7.482;2022-11-20T04:21:26;100359.25;;;6.12;71.52
4981;BME280;2507;50.392;7.482;2022-11-20T04:23:52;100364.44;;;6.12;70.06
4981;BME280;2507;50.392;7.482;2022-11-20T04:26:18;100357.50;;;5.97;70.74
4981;BME280;2507;50.392;7.482;2022-11-20T04:28:46;100356.03;;;5.60;72.41
4981;BME280;2507;50.392;7.482;2022-11-20T04:31:16;100360.88;;;5.19;75.19
4981;BME280;2507;50.392;7.482;2022-11-20T04:33:42;100366.28;;;4.99;76.37
4981;BME280;2507;50.392;7.482;2022-11-20T04:36:12;100366.34;;;4.98;77.25
4981;BME280;2507;50.392;7.482;2022-11-20T04:38:38;100364.94;;;5.08;76.88
4981;BME280;2507;50.392;7.482;2022-11-20T04:41:06;100364.94;;;5.08;76.79
4981;BME280;2507;50.392;7.482;2022-11-20T04:43:32;100361.59;;;5.06;77.34
4981;BME280;2507;50.392;7.482;2022-11-20T04:45:58;100347.63;;;4.91;77.61
4981;BME280;2507;50.392;7.482;2022-11-20T04:48:24;100353.00;;;4.88;77.53
4981;BME280;2507;50.392;7.482;2022-11-20T04:50:51;100354.44;;;4.94;78.05
4981;BME280;2507;50.392;7.482;2022-11-20T04:53:16;100350.00;;;5.44;77.12
4981;BME280;2507;50.392;7.482;2022-11-20T04:55:41;100358.47;;;5.79;75.10
4981;BME280;2507;50.392;7.482;2022-11-20T04:58:08;100356.63;;;5.96;74.08
4981;BME280;2507;50.392;7.482;2022-11-20T05:00:33;100339.88;;;5.86;72.94
4981;BME280;2507;50.392;7.482;2022-11-20T05:02:58;100340.16;;;5.80;73.54
4981;BME280;2507;50.392;7.482;2022-11-20T05:05:23;100347.31;;;5.77;73.32
4981;BME280;2507;50.392;7.482;2022-11-20T05:07:49;100348.56;;;5.70;74.31
4981;BME280;2507;50.392;7.482;2022-11-20T05:10:15;100344.88;;;5.74;73.68
4981;BME280;2507;50.392;7.482;2022-11-20T05:12:40;100342.00;;;5.78;74.02
4981;BME280;2507;50.392;7.482;2022-11-20T05:15:06;100339.34;;;5.80;74.72
4981;BME280;2507;50.392;7.482;2022-11-20T05:17:31;100343.13;;;5.90;74.44
4981;BME280;2507;50.392;7.482;2022-11-20T05:19:56;100349.84;;;5.94;73.55
4981;BME280;2507;50.392;7.482;2022-11-20T05:22:22;100342.53;;;6.00;73.55
4981;BME280;2507;50.392;7.482;2022-11-20T05:24:47;100336.94;;;5.92;73.27
4981;BME280;2507;50.392;7.482;2022-11-20T05:27:13;100332.91;;;5.87;73.67
4981;BME280;2507;50.392;7.482;2022-11-20T05:29:38;100345.00;;;6.03;73.74
4981;BME280;2507;50.392;7.482;2022-11-20T05:32:03;100336.00;;;6.09;72.51
4981;BME280;2507;50.392;7.482;2022-11-20T05:34:31;100341.19;;;6.09;73.71
4981;BME280;2507;50.392;7.482;2022-11-20T05:36:56;100337.47;;;6.13;73.25
4981;BME280;2507;50.392;7.482;2022-11-20T05:39:21;100328.91;;;6.11;73.22
4981;BME280;2507;50.392;7.482;2022-11-20T05:41:46;100328.00;;;6.12;73.31
4981;BME280;2507;50.392;7.482;2022-11-20T05:44:32;100321.38;;;6.06;73.80
4981;BME280;2507;50.392;7.482;2022-11-20T05:46:57;100321.84;;;6.13;74.02
4981;BME280;2507;50.392;7.482;2022-11-20T05:49:22;100326.38;;;6.09;73.59
4981;BME280;2507;50.392;7.482;2022-11-20T05:51:48;100324.06;;;6.05;73.74
4981;BME280;2507;50.392;7.482;2022-11-20T05:54:13;100333.19;;;6.12;73.83
4981;BME280;2507;50.392;7.482;2022-11-20T05:56:38;100329.41;;;6.02;74.88
4981;BME280;2507;50.392;7.482;2022-11-20T05:59:03;100341.19;;;6.09;74.21
4981;BME280;2507;50.392;7.482;2022-11-20T06:01:29;100332.78;;;6.04;74.18
4981;BME280;2507;50.392;7.482;2022-11-20T06:03:54;100339.94;;;6.00;74.79
4981;BME280;2507;50.392;7.482;2022-11-20T06:06:20;100338.13;;;5.87;75.41
4981;BME280;2507;50.392;7.482;2022-11-20T06:08:46;100340.19;;;5.65;75.81
4981;BME280;2507;50.392;7.482;2022-11-20T06:11:13;100344.06;;;5.58;77.04
4981;BME280;2507;50.392;7.482;2022-11-20T06:13:39;100333.97;;;5.52;77.75
4981;BME280;2507;50.392;7.482;2022-11-20T06:16:04;100331.63;;;5.47;77.76
4981;BME280;2507;50.392;7.482;2022-11-20T06:18:30;100334.66;;;5.71;77.23
4981;BME280;2507;50.392;7.482;2022-11-20T06:21:15;100337.19;;;5.88;76.22
4981;BME280;2507;50.392;7.482;2022-11-20T06:23:41;100327.44;;;5.76;76.23
4981;BME280;2507;50.392;7.482;2022-11-20T06:26:09;100339.25;;;5.66;77.31
4981;BME280;2507;50.392;7.482;2022-11-20T06:28:35;100335.63;;;5.53;78.01
4981;BME280;2507;50.392;7.482;2022-11-20T06:31:01;100347.75;;;5.38;78.02
4981;BME280;2507;50.392;7.482;2022-11-20T06:33:26;100348.72;;;5.36;78.88
4981;BME280;2507;50.392;7.482;2022-11-20T06:35:52;100353.16;;;5.34;79.16
4981;BME280;2507;50.392;7.482;2022-11-20T06:38:18;100349.91;;;5.46;78.49
4981;BME280;2507;50.392;7.482;2022-11-20T06:40:43;100339.00;;;5.39;78.80
4981;BME280;2507;50.392;7.482;2022-11-20T06:43:10;100340.16;;;5.34;79.32
4981;BME280;2507;50.392;7.482;2022-11-20T06:45:36;100342.59;;;5.21;79.75
4981;BME280;2507;50.392;7.482;2022-11-20T06:48:01;100347.50;;;5.10;80.24
4981;BME280;2507;50.392;7.482;2022-11-20T06:50:26;100357.16;;;5.08;80.48
4981;BME280;2507;50.392;7.482;2022-11-20T06:52:51;100352.19;;;5.03;80.69
4981;BME280;2507;50.392;7.482;2022-11-20T06:55:17;100350.69;;;5.15;81.13
4981;BME280;2507;50.392;7.482;2022-11-20T06:57:42;100353.16;;;5.18;80.54
4981;BME280;2507;50.392;7.482;2022-11-20T07:00:08;100340.06;;;5.19;80.75
4981;BME280;2507;50.392;7.482;2022-11-20T07:02:33;100353.75;;;5.39;79.87
4981;BME280;2507;50.392;7.482;2022-11-20T07:04:58;100356.72;;;5.33;79.41
4981;BME280;2507;50.392;7.482;2022-11-20T07:07:24;100349.84;;;5.47;79.73
4981;BME280;2507;50.392;7.482;2022-11-20T07:09:49;100354.94;;;5.64;79.37
4981;BME280;2507;50.392;7.482;2022-11-20T07:12:14;100350.41;;;5.68;78.97
4981;BME280;2507;50.392;7.482;2022-11-20T07:14:39;100355.22;;;5.75;79.12
4981;BME280;2507;50.392;7.482;2022-11-20T07:17:05;100363.38;;;5.85;78.62
4981;BME280;2507;50.392;7.482;2022-11-20T07:19:30;100369.84;;;5.78;78.04
4981;BME280;2507;50.392;7.482;2022-11-20T07:21:55;100375.88;;;5.63;78.46
4981;BME280;2507;50.392;7.482;2022-11-20T07:24:20;100375.50;;;5.53;78.78
4981;BME280;2507;50.392;7.482;2022-11-20T07:26:46;100378.56;;;5.61;79.86
4981;BME280;2507;50.392;7.482;2022-11-20T07:29:14;100380.00;;;5.67;78.43
4981;BME280;2507;50.392;7.482;2022-11-20T07:31:39;100381.06;;;5.78;78.35
4981;BME280;2507;50.392;7.482;2022-11-20T07:34:05;100382.19;;;5.74;78.08
4981;BME280;2507;50.392;7.482;2022-11-20T07:36:30;100384.22;;;5.85;78.91
4981;BME280;2507;50.392;7.482;2022-11-20T07:38:55;100387.91;;;6.12;77.34
4981;BME280;2507;50.392;7.482;2022-11-20T07:41:20;100392.91;;;6.31;77.52
4981;BME280;2507;50.392;7.482;2022-11-20T07:43:46;100396.66;;;6.41;76.84
4981;BME280;2507;50.392;7.482;2022-11-20T07:46:11;100392.53;;;6.37;75.96
4981;BME280;2507;50.392;7.482;2022-11-20T07:48:36;100389.66;;;6.27;75.83
4981;BME280;2507;50.392;7.482;2022-11-20T07:51:02;100402.75;;;6.55;75.50
4981;BME280;2507;50.392;7.482;2022-11-20T07:53:27;100393.84;;;6.59;74.85
4981;BME280;2507;50.392;7.482;2022-11-20T07:55:52;100399.25;;;6.56;74.10
4981;BME280;2507;50.392;7.482;2022-11-20T07:58:18;100394.50;;;6.63;74.90
4981;BME280;2507;50.392;7.482;2022-11-20T08:00:45;100401.75;;;6.58;74.49
4981;BME280;2507;50.392;7.482;2022-11-20T08:03:10;100401.56;;;6.61;74.89
4981;BME280;2507;50.392;7.482;2022-11-20T08:05:35;100408.75;;;6.71;74.08
4981;BME280;2507;50.392;7.482;2022-11-20T08:08:02;100409.50;;;6.59;74.29
4981;BME280;2507;50.392;7.482;2022-11-20T08:10:27;100409.50;;;6.59;74.50
4981;BME280;2507;50.392;7.482;2022-11-20T08:12:53;100402.81;;;6.69;74.22
4981;BME280;2507;50.392;7.482;2022-11-20T08:15:38;100399.94;;;6.74;73.67
4981;BME280;2507;50.392;7.482;2022-11-20T08:18:09;100402.44;;;6.75;73.53
4981;BME280;2507;50.392;7.482;2022-11-20T08:20:36;100401.72;;;6.87;73.42
4981;BME280;2507;50.392;7.482;2022-11-20T08:23:03;100406.38;;;6.82;73.68
4981;BME280;2507;50.392;7.482;2022-11-20T08:25:31;100401.19;;;6.96;73.88
4981;BME280;2507;50.392;7.482;2022-11-20T08:27:58;100398.41;;;6.99;72.86
4981;BME280;2507;50.392;7.482;2022-11-20T08:30:23;100407.16;;;6.98;73.11
4981;BME280;2507;50.392;7.482;2022-11-20T08:32:49;100403.59;;;6.85;73.24
4981;BME280;2507;50.392;7.482;2022-11-20T08:35:15;100409.00;;;6.96;72.72
4981;BME280;2507;50.392;7.482;2022-11-20T08:37:40;100410.81;;;7.10;72.10
4981;BME280;2507;50.392;7.482;2022-11-20T08:40:09;100415.47;;;7.05;72.33
4981;BME280;2507;50.392;7.482;2022-11-20T08:42:35;100402.53;;;7.17;71.49
4981;BME280;2507;50.392;7.482;2022-11-20T08:45:00;100405.88;;;7.19;71.68
4981;BME280;2507;50.392;7.482;2022-11-20T08:47:25;100408.19;;;7.10;71.01
4981;BME280;2507;50.392;7.482;2022-11-20T08:49:51;100408.34;;;6.93;71.83
4981;BME280;2507;50.392;7.482;2022-11-20T08:52:16;100418.56;;;6.82;72.27
4981;BME280;2507;50.392;7.482;2022-11-20T08:54:41;100402.22;;;6.64;73.26
4981;BME280;2507;50.392;7.482;2022-11-20T08:57:07;100414.72;;;6.44;74.29
4981;BME280;2507;50.392;7.482;2022-11-20T08:59:33;100415.91;;;6.83;74.31
4981;BME280;2507;50.392;7.482;2022-11-20T09:01:58;100410.13;;;6.92;72.14
4981;BME280;2507;50.392;7.482;2022-11-20T09:04:23;100405.56;;;6.96;72.81
4981;BME280;2507;50.392;7.482;2022-11-20T09:06:49;100412.41;;;7.27;71.61
4981;BME280;2507;50.392;7.482;2022-11-20T09:09:16;100413.25;;;7.41;71.18
4981;BME280;2507;50.392;7.482;2022-11-20T09:11:43;100408.03;;;7.27;71.14
4981;BME280;2507;50.392;7.482;2022-11-20T09:14:08;100412.22;;;7.30;71.57
4981;BME280;2507;50.392;7.482;2022-11-20T09:16:33;100409.44;;;7.33;71.74
4981;BME280;2507;50.392;7.482;2022-11-20T09:18:59;100409.59;;;7.44;72.25
4981;BME280;2507;50.392;7.482;2022-11-20T09:21:24;100413.13;;;7.57;71.27
4981;BME280;2507;50.392;7.482;2022-11-20T09:23:49;100413.88;;;7.73;69.99
4981;BME280;2507;50.392;7.482;2022-11-20T09:26:15;100417.25;;;7.61;71.04
4981;BME280;2507;50.392;7.482;2022-11-20T09:28:40;100412.66;;;7.92;69.93
4981;BME280;2507;50.392;7.482;2022-11-20T09:31:17;100402.19;;;8.19;69.51
4981;BME280;2507;50.392;7.482;2022-11-20T09:33:44;100402.66;;;8.25;68.14
4981;BME280;2507;50.392;7.482;2022-11-20T09:36:09;100401.44;;;7.90;68.31
4981;BME280;2507;50.392;7.482;2022-11-20T09:38:35;100408.28;;;7.37;70.89
4981;BME280;2507;50.392;7.482;2022-11-20T09:41:05;100403.19;;;7.07;72.30
4981;BME280;2507;50.392;7.482;2022-11-20T09:43:49;100409.16;;;7.09;72.61
4981;BME280;2507;50.392;7.482;2022-11-20T09:46:29;100392.00;;;7.33;72.79
4981;BME280;2507;50.392;7.482;2022-11-20T09:55:01;100390.47;;;8.12;68.34
4981;BME280;2507;50.392;7.482;2022-11-20T09:57:35;100380.25;;;8.36;67.76
4981;BME280;2507;50.392;7.482;2022-11-20T10:00:05;100387.06;;;8.38;67.58
4981;BME280;2507;50.392;7.482;2022-11-20T10:02:57;100386.75;;;8.43;67.83
4981;BME280;2507;50.392;7.482;2022-11-20T10:05:47;100392.53;;;8.60;67.54
4981;BME280;2507;50.392;7.482;2022-11-20T10:08:25;100372.19;;;8.90;66.18
4981;BME280;2507;50.392;7.482;2022-11-20T10:11:05;100372.38;;;8.87;65.75
4981;BME280;2507;50.392;7.482;2022-11-20T10:17:18;100362.13;;;8.72;66.69
4981;BME280;2507;50.392;7.482;2022-11-20T10:23:11;100358.38;;;9.01;66.88
4981;BME280;2507;50.392;7.482;2022-11-20T10:25:47;100351.44;;;9.38;65.62
4981;BME280;2507;50.392;7.482;2022-11-20T10:28:34;100346.22;;;9.12;65.97
4981;BME280;2507;50.392;7.482;2022-11-20T10:31:06;100341.78;;;9.25;66.25
4981;BME280;2507;50.392;7.482;2022-11-20T10:33:38;100341.81;;;9.00;67.18
4981;BME280;2507;50.392;7.482;2022-11-20T10:36:26;100331.72;;;9.45;64.38
4981;BME280;2507;50.392;7.482;2022-11-20T10:39:14;100326.22;;;9.60;64.38
4981;BME280;2507;50.392;7.482;2022-11-20T10:41:42;100330.94;;;9.19;65.51
4981;BME280;2507;50.392;7.482;2022-11-20T10:44:14;100325.94;;;9.03;67.67
4981;BME280;2507;50.392;7.482;2022-11-20T10:47:01;100324.22;;;9.15;66.58
4981;BME280;2507;50.392;7.482;2022-11-20T10:49:26;100328.53;;;9.16;66.99
4981;BME280;2507;50.392;7.482;2022-11-20T10:52:02;100330.19;;;9.29;67.25
4981;BME280;2507;50.392;7.482;2022-11-20T10:57:02;100323.41;;;9.14;66.69
4981;BME280;2507;50.392;7.482;2022-11-20T11:01:58;100316.88;;;8.32;70.75
4981;BME280;2507;50.392;7.482;2022-11-20T11:04:38;100316.50;;;8.88;69.77
4981;BME280;2507;50.392;7.482;2022-11-20T11:07:27;100308.03;;;9.46;67.61
4981;BME280;2507;50.392;7.482;2022-11-20T11:09:56;100308.19;;;9.68;66.80
4981;BME280;2507;50.392;7.482;2022-11-20T11:12:24;100304.38;;;9.00;68.57
4981;BME280;2507;50.392;7.482;2022-11-20T11:14:52;100298.69;;;8.93;69.23
4981;BME280;2507;50.392;7.482;2022-11-20T11:17:32;100308.44;;;8.66;70.97
4981;BME280;2507;50.392;7.482;2022-11-20T11:20:05;100302.38;;;9.03;69.24
4981;BME280;2507;50.392;7.482;2022-11-20T11:22:34;100291.91;;;9.52;66.89
4981;BME280;2507;50.392;7.482;2022-11-20T11:25:09;100295.59;;;9.97;64.85
4981;BME280;2507;50.392;7.482;2022-11-20T11:27:47;100288.53;;;10.10;64.49
4981;BME280;2507;50.392;7.482;2022-11-20T11:30:18;100287.19;;;9.81;66.02
4981;BME280;2507;50.392;7.482;2022-11-20T11:32:44;100282.88;;;9.56;66.84
4981;BME280;2507;50.392;7.482;2022-11-20T11:35:28;100279.53;;;10.01;65.77
4981;BME280;2507;50.392;7.482;2022-11-20T11:38:04;100274.38;;;9.16;67.25
4981;BME280;2507;50.392;7.482;2022-11-20T11:40:33;100265.13;;;8.75;69.47
4981;BME280;2507;50.392;7.482;2022-11-20T11:43:04;100257.97;;;9.14;67.66
4981;BME280;2507;50.392;7.482;2022-11-20T11:45:30;100255.91;;;9.43;66.15
4981;BME280;2507;50.392;7.482;2022-11-20T11:47:57;100258.16;;;9.48;66.20
4981;BME280;2507;50.392;7.482;2022-11-20T11:50:27;100257.13;;;9.74;64.70
4981;BME280;2507;50.392;7.482;2022-11-20T11:53:17;100245.69;;;9.75;63.85
4981;BME280;2507;50.392;7.482;2022-11-20T11:55:49;100245.25;;;9.81;64.39
4981;BME280;2507;50.392;7.482;2022-11-20T11:58:44;100244.47;;;9.91;64.61
4981;BME280;2507;50.392;7.482;2022-11-20T12:01:34;100242.03;;;9.54;65.36
4981;BME280;2507;50.392;7.482;2022-11-20T12:06:30;100227.34;;;9.27;67.88
4981;BME280;2507;50.392;7.482;2022-11-20T12:09:03;100228.75;;;9.44;66.70
4981;BME280;2507;50.392;7.482;2022-11-20T12:14:03;100224.47;;;9.67;66.65
4981;BME280;2507;50.392;7.482;2022-11-20T12:16:35;100215.84;;;9.54;66.89
4981;BME280;2507;50.392;7.482;2022-11-20T12:19:01;100209.72;;;9.06;69.68
4981;BME280;2507;50.392;7.482;2022-11-20T12:24:24;100207.59;;;9.11;69.49
4981;BME280;2507;50.392;7.482;2022-11-20T12:30:14;100212.03;;;9.58;68.40
4981;BME280;2507;50.392;7.482;2022-11-20T12:47:40;100195.50;;;9.57;67.67
4981;BME280;2507;50.392;7.482;2022-11-20T12:50:23;100181.09;;;9.63;67.81
4981;BME280;2507;50.392;7.482;2022-11-20T12:53:05;100180.69;;;9.45;69.96
4981;BME280;2507;50.392;7.482;2022-11-20T12:58:43;100176.22;;;8.98;71.14
4981;BME280;2507;50.392;7.482;2022-11-20T13:06:43;100174.78;;;9.54;69.16
4981;BME280;2507;50.392;7.482;2022-11-20T13:09:11;100161.75;;;9.87;67.66
4981;BME280;2507;50.392;7.482;2022-11-20T13:11:42;100151.59;;;10.06;67.45
4981;BME280;2507;50.392;7.482;2022-11-20T13:16:52;100151.06;;;10.36;66.12
4981;BME280;2507;50.392;7.482;2022-11-20T13:19:18;100151.88;;;10.37;66.70
4981;BME280;2507;50.392;7.482;2022-11-20T13:21:46;100136.84;;;10.39;66.96
4981;BME280;2507;50.392;7.482;2022-11-20T13:29:34;100137.47;;;10.53;66.61
4981;BME280;2507;50.392;7.482;2022-11-20T13:32:04;100118.50;;;10.61;66.12
4981;BME280;2507;50.392;7.482;2022-11-20T13:34:29;100105.38;;;10.61;66.34
4981;BME280;2507;50.392;7.482;2022-11-20T13:36:57;100101.44;;;10.55;66.34
4981;BME280;2507;50.392;7.482;2022-11-20T13:39:49;100119.06;;;9.98;68.25
4981;BME280;2507;50.392;7.482;2022-11-20T13:44:46;100112.19;;;8.91;72.85
4981;BME280;2507;50.392;7.482;2022-11-20T13:47:20;100112.38;;;9.01;73.90
4981;BME280;2507;50.392;7.482;2022-11-20T13:49:46;100105.56;;;8.98;73.79
4981;BME280;2507;50.392;7.482;2022-11-20T13:55:10;100098.13;;;8.81;74.45
4981;BME280;2507;50.392;7.482;2022-11-20T14:00:25;100089.78;;;9.00;74.03
4981;BME280;2507;50.392;7.482;2022-11-20T14:05:35;100083.22;;;8.94;74.36
4981;BME280;2507;50.392;7.482;2022-11-20T14:08:03;100076.72;;;8.87;74.36
4981;BME280;2507;50.392;7.482;2022-11-20T14:10:30;100081.09;;;8.76;75.50
4981;BME280;2507;50.392;7.482;2022-11-20T14:12:55;100080.47;;;8.96;75.85
4981;BME280;2507;50.392;7.482;2022-11-20T14:15:26;100082.31;;;9.06;73.97
4981;BME280;2507;50.392;7.482;2022-11-20T14:17:51;100073.50;;;9.07;74.52
4981;BME280;2507;50.392;7.482;2022-11-20T14:20:17;100081.75;;;8.90;74.22
4981;BME280;2507;50.392;7.482;2022-11-20T14:22:49;100063.16;;;8.82;74.88
4981;BME280;2507;50.392;7.482;2022-11-20T14:27:42;100048.59;;;8.91;75.66
4981;BME280;2507;50.392;7.482;2022-11-20T14:30:17;100058.81;;;9.17;75.40
4981;BME280;2507;50.392;7.482;2022-11-20T14:32:44;100070.63;;;9.23;73.81
4981;BME280;2507;50.392;7.482;2022-11-20T14:35:16;100050.28;;;9.26;73.46
4981;BME280;2507;50.392;7.482;2022-11-20T14:37:44;100049.19;;;9.18;74.07
4981;BME280;2507;50.392;7.482;2022-11-20T14:42:52;100042.06;;;9.31;73.69
4981;BME280;2507;50.392;7.482;2022-11-20T14:45:18;100051.16;;;9.49;72.74
4981;BME280;2507;50.392;7.482;2022-11-20T14:47:44;100041.69;;;9.59;72.72
4981;BME280;2507;50.392;7.482;2022-11-20T14:50:18;100032.63;;;9.63;71.85
4981;BME280;2507;50.392;7.482;2022-11-20T14:52:55;100023.66;;;9.44;71.97